sensor_id;sensor_type;location;lat;lon;timestamp;P1;durP1;ratioP1;P2;durP2;ratioP2
75894;SDS011;64573;50.328;15.014;2024-03-02T00:00:35;69.72;;;29.98;;
75894;SDS011;64573;50.328;15.014;2024-03-02T00:03:01;71.65;;;28.48;;
75894;SDS011;64573;50.328;15.014;2024-03-02T00:05:27;84.97;;;30.65;;
75894;SDS011;64573;50.328;15.014;2024-03-02T00:07:53;79.93;;;31.95;;
75894;SDS011;64573;50.328;15.014;2024-03-02T00:10:22;75.30;;;30.20;;
75894;SDS011;64573;50.328;15.014;2024-03-02T00:12:53;80.28;;;32.08;;
75894;SDS011;64573;50.328;15.014;2024-03-02T00:18:10;80.95;;;30.30;;
75894;SDS011;64573;50.328;15.014;2024-03-02T00:20:37;82.10;;;29.75;;
75894;SDS011;64573;50.328;15.014;2024-03-02T00:23:04;77.05;;;30.73;;
75894;SDS011;64573;50.328;15.014;2024-03-02T00:25:40;81.70;;;31.58;;
75894;SDS011;64573;50.328;15.014;2024-03-02T00:33:30;88.47;;;31.55;;
75894;SDS011;64573;50.328;15.014;2024-03-02T00:35:57;78.13;;;32.13;;
75894;SDS011;64573;50.328;15.014;2024-03-02T00:38:24;84.55;;;31.48;;
75894;SDS011;64573;50.328;15.014;2024-03-02T00:40:49;86.50;;;30.48;;
75894;SDS011;64573;50.328;15.014;2024-03-02T00:43:24;89.35;;;32.60;;
75894;SDS011;64573;50.328;15.014;2024-03-02T00:46:12;84.65;;;32.33;;
75894;SDS011;64573;50.328;15.014;2024-03-02T00:48:39;84.95;;;31.90;;
75894;SDS011;64573;50.328;15.014;2024-03-02T00:51:13;86.13;;;32.08;;
75894;SDS011;64573;50.328;15.014;2024-03-02T00:53:38;90.25;;;31.58;;
75894;SDS011;64573;50.328;15.014;2024-03-02T00:56:04;87.90;;;31.52;;
75894;SDS011;64573;50.328;15.014;2024-03-02T00:58:34;89.63;;;32.00;;
75894;SDS011;64573;50.328;15.014;2024-03-02T01:00:59;82.85;;;31.95;;
75894;SDS011;64573;50.328;15.014;2024-03-02T01:03:24;83.40;;;31.17;;
75894;SDS011;64573;50.328;15.014;2024-03-02T01:05:49;83.47;;;30.63;;
75894;SDS011;64573;50.328;15.014;2024-03-02T01:08:15;79.20;;;30.08;;
75894;SDS011;64573;50.328;15.014;2024-03-02T01:10:40;84.28;;;32.30;;
75894;SDS011;64573;50.328;15.014;2024-03-02T01:13:05;80.28;;;31.40;;
75894;SDS011;64573;50.328;15.014;2024-03-02T01:15:31;87.88;;;32.20;;
75894;SDS011;64573;50.328;15.014;2024-03-02T01:17:57;80.50;;;31.45;;
75894;SDS011;64573;50.328;15.014;2024-03-02T01:20:23;82.70;;;32.25;;
75894;SDS011;64573;50.328;15.014;2024-03-02T01:22:49;83.68;;;31.90;;
75894;SDS011;64573;50.328;15.014;2024-03-02T01:25:14;85.93;;;32.83;;
75894;SDS011;64573;50.328;15.014;2024-03-02T01:27:39;86.18;;;33.08;;
75894;SDS011;64573;50.328;15.014;2024-03-02T01:30:05;83.15;;;31.88;;
75894;SDS011;64573;50.328;15.014;2024-03-02T01:32:31;90.97;;;33.45;;
75894;SDS011;64573;50.328;15.014;2024-03-02T01:34:56;96.45;;;33.45;;
75894;SDS011;64573;50.328;15.014;2024-03-02T01:37:22;90.25;;;32.88;;
75894;SDS011;64573;50.328;15.014;2024-03-02T01:39:47;95.90;;;33.70;;
75894;SDS011;64573;50.328;15.014;2024-03-02T01:42:12;83.95;;;32.30;;
75894;SDS011;64573;50.328;15.014;2024-03-02T01:44:38;91.88;;;33.22;;
75894;SDS011;64573;50.328;15.014;2024-03-02T01:47:05;90.03;;;33.53;;
75894;SDS011;64573;50.328;15.014;2024-03-02T01:49:30;88.32;;;32.55;;
75894;SDS011;64573;50.328;15.014;2024-03-02T01:51:57;90.03;;;32.75;;
75894;SDS011;64573;50.328;15.014;2024-03-02T01:54:23;81.13;;;31.63;;
75894;SDS011;64573;50.328;15.014;2024-03-02T01:56:48;85.13;;;31.95;;
75894;SDS011;64573;50.328;15.014;2024-03-02T01:59:14;90.65;;;32.53;;
75894;SDS011;64573;50.328;15.014;2024-03-02T02:01:39;86.70;;;31.50;;
75894;SDS011;64573;50.328;15.014;2024-03-02T02:04:04;87.93;;;31.63;;
75894;SDS011;64573;50.328;15.014;2024-03-02T02:06:31;91.03;;;32.92;;
75894;SDS011;64573;50.328;15.014;2024-03-02T02:08:57;85.25;;;32.08;;
75894;SDS011;64573;50.328;15.014;2024-03-02T02:11:22;84.60;;;31.75;;
75894;SDS011;64573;50.328;15.014;2024-03-02T02:13:48;85.85;;;32.05;;
75894;SDS011;64573;50.328;15.014;2024-03-02T02:16:14;90.10;;;32.15;;
75894;SDS011;64573;50.328;15.014;2024-03-02T02:18:39;89.45;;;31.70;;
75894;SDS011;64573;50.328;15.014;2024-03-02T02:21:04;86.30;;;32.17;;
75894;SDS011;64573;50.328;15.014;2024-03-02T02:23:30;92.28;;;32.03;;
75894;SDS011;64573;50.328;15.014;2024-03-02T02:25:55;82.30;;;32.75;;
75894;SDS011;64573;50.328;15.014;2024-03-02T02:28:20;81.47;;;30.38;;
75894;SDS011;64573;50.328;15.014;2024-03-02T02:30:46;89.72;;;31.00;;
75894;SDS011;64573;50.328;15.014;2024-03-02T02:33:11;88.85;;;31.60;;
75894;SDS011;64573;50.328;15.014;2024-03-02T02:35:37;87.00;;;32.42;;
75894;SDS011;64573;50.328;15.014;2024-03-02T02:38:02;82.68;;;31.33;;
75894;SDS011;64573;50.328;15.014;2024-03-02T02:40:28;85.32;;;31.73;;
75894;SDS011;64573;50.328;15.014;2024-03-02T02:42:57;81.13;;;31.13;;
75894;SDS011;64573;50.328;15.014;2024-03-02T02:45:23;79.95;;;30.38;;
75894;SDS011;64573;50.328;15.014;2024-03-02T02:47:48;76.97;;;30.52;;
75894;SDS011;64573;50.328;15.014;2024-03-02T02:50:13;75.93;;;29.88;;
75894;SDS011;64573;50.328;15.014;2024-03-02T02:52:40;78.85;;;28.90;;
75894;SDS011;64573;50.328;15.014;2024-03-02T02:55:10;83.93;;;31.90;;
75894;SDS011;64573;50.328;15.014;2024-03-02T02:57:37;73.43;;;28.27;;
75894;SDS011;64573;50.328;15.014;2024-03-02T03:00:05;71.38;;;27.92;;
75894;SDS011;64573;50.328;15.014;2024-03-02T03:02:38;74.07;;;29.48;;
75894;SDS011;64573;50.328;15.014;2024-03-02T03:05:04;80.93;;;30.73;;
75894;SDS011;64573;50.328;15.014;2024-03-02T03:07:34;77.15;;;28.95;;
75894;SDS011;64573;50.328;15.014;2024-03-02T03:09:59;74.22;;;28.25;;
75894;SDS011;64573;50.328;15.014;2024-03-02T03:12:26;71.68;;;27.95;;
75894;SDS011;64573;50.328;15.014;2024-03-02T03:14:51;62.35;;;26.08;;
75894;SDS011;64573;50.328;15.014;2024-03-02T03:17:16;73.30;;;28.38;;
75894;SDS011;64573;50.328;15.014;2024-03-02T03:22:11;66.97;;;26.25;;
75894;SDS011;64573;50.328;15.014;2024-03-02T03:24:36;57.25;;;23.17;;
75894;SDS011;64573;50.328;15.014;2024-03-02T03:27:02;59.08;;;24.35;;
75894;SDS011;64573;50.328;15.014;2024-03-02T03:29:27;59.95;;;23.58;;
75894;SDS011;64573;50.328;15.014;2024-03-02T03:31:53;60.63;;;23.35;;
75894;SDS011;64573;50.328;15.014;2024-03-02T03:34:18;53.85;;;23.77;;
75894;SDS011;64573;50.328;15.014;2024-03-02T03:36:43;63.50;;;24.48;;
75894;SDS011;64573;50.328;15.014;2024-03-02T03:39:09;53.75;;;22.88;;
75894;SDS011;64573;50.328;15.014;2024-03-02T03:41:34;56.08;;;21.98;;
75894;SDS011;64573;50.328;15.014;2024-03-02T03:44:00;53.08;;;23.05;;
75894;SDS011;64573;50.328;15.014;2024-03-02T03:46:25;51.60;;;21.75;;
75894;SDS011;64573;50.328;15.014;2024-03-02T03:48:50;55.45;;;23.13;;
75894;SDS011;64573;50.328;15.014;2024-03-02T03:51:16;50.30;;;20.45;;
75894;SDS011;64573;50.328;15.014;2024-03-02T03:53:41;56.60;;;22.45;;
75894;SDS011;64573;50.328;15.014;2024-03-02T03:56:06;56.53;;;21.45;;
75894;SDS011;64573;50.328;15.014;2024-03-02T03:58:32;52.97;;;20.48;;
75894;SDS011;64573;50.328;15.014;2024-03-02T04:00:57;48.25;;;20.88;;
75894;SDS011;64573;50.328;15.014;2024-03-02T04:03:23;53.70;;;21.55;;
75894;SDS011;64573;50.328;15.014;2024-03-02T04:05:48;57.85;;;22.85;;
75894;SDS011;64573;50.328;15.014;2024-03-02T04:08:13;52.20;;;20.52;;
75894;SDS011;64573;50.328;15.014;2024-03-02T04:10:39;54.80;;;22.30;;
75894;SDS011;64573;50.328;15.014;2024-03-02T04:13:05;49.22;;;20.35;;
75894;SDS011;64573;50.328;15.014;2024-03-02T04:15:30;54.90;;;20.67;;
75894;SDS011;64573;50.328;15.014;2024-03-02T04:17:56;51.10;;;21.50;;
75894;SDS011;64573;50.328;15.014;2024-03-02T04:20:21;52.20;;;22.48;;
75894;SDS011;64573;50.328;15.014;2024-03-02T04:22:47;55.30;;;23.25;;
75894;SDS011;64573;50.328;15.014;2024-03-02T04:25:12;49.20;;;21.58;;
75894;SDS011;64573;50.328;15.014;2024-03-02T04:27:37;54.08;;;22.08;;
75894;SDS011;64573;50.328;15.014;2024-03-02T04:30:03;50.85;;;21.58;;
75894;SDS011;64573;50.328;15.014;2024-03-02T04:32:30;50.80;;;20.35;;
75894;SDS011;64573;50.328;15.014;2024-03-02T04:34:56;56.40;;;20.38;;
75894;SDS011;64573;50.328;15.014;2024-03-02T04:37:22;52.38;;;21.35;;
75894;SDS011;64573;50.328;15.014;2024-03-02T04:39:47;64.22;;;23.35;;
75894;SDS011;64573;50.328;15.014;2024-03-02T04:42:12;57.35;;;23.10;;
75894;SDS011;64573;50.328;15.014;2024-03-02T04:44:38;66.07;;;25.02;;
75894;SDS011;64573;50.328;15.014;2024-03-02T04:47:03;65.50;;;23.27;;
75894;SDS011;64573;50.328;15.014;2024-03-02T04:49:29;61.33;;;24.92;;
75894;SDS011;64573;50.328;15.014;2024-03-02T04:51:55;60.78;;;23.65;;
75894;SDS011;64573;50.328;15.014;2024-03-02T04:54:20;61.17;;;23.95;;
75894;SDS011;64573;50.328;15.014;2024-03-02T04:56:46;58.58;;;23.50;;
75894;SDS011;64573;50.328;15.014;2024-03-02T04:59:17;58.75;;;23.70;;
75894;SDS011;64573;50.328;15.014;2024-03-02T05:01:43;63.05;;;23.17;;
75894;SDS011;64573;50.328;15.014;2024-03-02T05:04:09;64.97;;;23.75;;
75894;SDS011;64573;50.328;15.014;2024-03-02T05:06:36;59.90;;;23.98;;
75894;SDS011;64573;50.328;15.014;2024-03-02T05:09:08;59.92;;;25.00;;
75894;SDS011;64573;50.328;15.014;2024-03-02T05:11:34;59.22;;;24.17;;
75894;SDS011;64573;50.328;15.014;2024-03-02T05:14:05;64.18;;;25.33;;
75894;SDS011;64573;50.328;15.014;2024-03-02T05:16:34;62.45;;;25.73;;
75894;SDS011;64573;50.328;15.014;2024-03-02T05:19:01;66.20;;;27.23;;
75894;SDS011;64573;50.328;15.014;2024-03-02T05:21:27;65.57;;;26.30;;
75894;SDS011;64573;50.328;15.014;2024-03-02T05:23:52;65.90;;;25.55;;
75894;SDS011;64573;50.328;15.014;2024-03-02T05:26:18;63.65;;;24.92;;
75894;SDS011;64573;50.328;15.014;2024-03-02T05:28:43;60.17;;;23.88;;
75894;SDS011;64573;50.328;15.014;2024-03-02T05:31:11;59.63;;;24.75;;
75894;SDS011;64573;50.328;15.014;2024-03-02T05:33:40;65.95;;;24.95;;
75894;SDS011;64573;50.328;15.014;2024-03-02T05:36:06;66.68;;;26.00;;
75894;SDS011;64573;50.328;15.014;2024-03-02T05:38:32;56.15;;;24.98;;
75894;SDS011;64573;50.328;15.014;2024-03-02T05:40:59;58.38;;;24.83;;
75894;SDS011;64573;50.328;15.014;2024-03-02T05:43:25;60.65;;;26.33;;
75894;SDS011;64573;50.328;15.014;2024-03-02T05:45:50;56.80;;;23.88;;
75894;SDS011;64573;50.328;15.014;2024-03-02T05:48:15;63.03;;;24.58;;
75894;SDS011;64573;50.328;15.014;2024-03-02T05:50:41;57.08;;;25.13;;
75894;SDS011;64573;50.328;15.014;2024-03-02T05:53:06;58.80;;;23.95;;
75894;SDS011;64573;50.328;15.014;2024-03-02T05:55:32;57.92;;;23.80;;
75894;SDS011;64573;50.328;15.014;2024-03-02T05:57:57;57.42;;;23.52;;
75894;SDS011;64573;50.328;15.014;2024-03-02T06:00:23;59.47;;;25.73;;
75894;SDS011;64573;50.328;15.014;2024-03-02T06:02:48;62.60;;;25.65;;
75894;SDS011;64573;50.328;15.014;2024-03-02T06:05:14;60.15;;;24.33;;
75894;SDS011;64573;50.328;15.014;2024-03-02T06:07:40;65.38;;;25.25;;
75894;SDS011;64573;50.328;15.014;2024-03-02T06:10:06;64.57;;;24.65;;
75894;SDS011;64573;50.328;15.014;2024-03-02T06:12:33;59.30;;;23.88;;
75894;SDS011;64573;50.328;15.014;2024-03-02T06:14:59;61.22;;;24.30;;
75894;SDS011;64573;50.328;15.014;2024-03-02T06:17:24;62.10;;;25.00;;
75894;SDS011;64573;50.328;15.014;2024-03-02T06:19:50;63.55;;;27.42;;
75894;SDS011;64573;50.328;15.014;2024-03-02T06:22:15;78.88;;;29.65;;
75894;SDS011;64573;50.328;15.014;2024-03-02T06:24:40;86.82;;;31.08;;
75894;SDS011;64573;50.328;15.014;2024-03-02T06:27:06;83.40;;;30.73;;
75894;SDS011;64573;50.328;15.014;2024-03-02T06:29:34;80.22;;;30.23;;
75894;SDS011;64573;50.328;15.014;2024-03-02T06:31:59;80.90;;;30.88;;
75894;SDS011;64573;50.328;15.014;2024-03-02T06:34:25;71.28;;;29.10;;
75894;SDS011;64573;50.328;15.014;2024-03-02T06:36:50;63.50;;;25.35;;
75894;SDS011;64573;50.328;15.014;2024-03-02T06:39:15;72.53;;;27.38;;
75894;SDS011;64573;50.328;15.014;2024-03-02T06:41:41;70.50;;;26.58;;
75894;SDS011;64573;50.328;15.014;2024-03-02T06:44:07;68.00;;;25.52;;
75894;SDS011;64573;50.328;15.014;2024-03-02T06:46:33;61.50;;;23.75;;
75894;SDS011;64573;50.328;15.014;2024-03-02T06:48:58;65.40;;;24.13;;
75894;SDS011;64573;50.328;15.014;2024-03-02T06:51:23;54.85;;;23.25;;
75894;SDS011;64573;50.328;15.014;2024-03-02T06:53:49;56.90;;;21.80;;
75894;SDS011;64573;50.328;15.014;2024-03-02T06:56:14;55.20;;;23.27;;
75894;SDS011;64573;50.328;15.014;2024-03-02T06:58:40;58.25;;;22.92;;
75894;SDS011;64573;50.328;15.014;2024-03-02T07:01:05;50.00;;;21.17;;
75894;SDS011;64573;50.328;15.014;2024-03-02T07:03:30;47.03;;;20.13;;
75894;SDS011;64573;50.328;15.014;2024-03-02T07:05:56;54.28;;;21.92;;
75894;SDS011;64573;50.328;15.014;2024-03-02T07:08:22;42.97;;;20.02;;
75894;SDS011;64573;50.328;15.014;2024-03-02T07:10:47;47.97;;;20.67;;
75894;SDS011;64573;50.328;15.014;2024-03-02T07:13:13;47.53;;;20.55;;
75894;SDS011;64573;50.328;15.014;2024-03-02T07:15:38;46.47;;;20.50;;
75894;SDS011;64573;50.328;15.014;2024-03-02T07:18:22;48.63;;;20.27;;
75894;SDS011;64573;50.328;15.014;2024-03-02T07:20:47;50.17;;;21.70;;
75894;SDS011;64573;50.328;15.014;2024-03-02T07:23:14;44.75;;;19.38;;
75894;SDS011;64573;50.328;15.014;2024-03-02T07:25:40;44.42;;;20.77;;
75894;SDS011;64573;50.328;15.014;2024-03-02T07:28:05;42.45;;;19.52;;
75894;SDS011;64573;50.328;15.014;2024-03-02T07:30:32;40.35;;;17.67;;
75894;SDS011;64573;50.328;15.014;2024-03-02T07:32:58;45.65;;;19.20;;
75894;SDS011;64573;50.328;15.014;2024-03-02T07:35:24;39.22;;;17.92;;
75894;SDS011;64573;50.328;15.014;2024-03-02T07:37:52;40.17;;;18.33;;
75894;SDS011;64573;50.328;15.014;2024-03-02T07:40:18;40.80;;;17.40;;
75894;SDS011;64573;50.328;15.014;2024-03-02T07:42:44;38.80;;;17.95;;
75894;SDS011;64573;50.328;15.014;2024-03-02T07:45:10;43.80;;;18.52;;
75894;SDS011;64573;50.328;15.014;2024-03-02T07:47:36;38.58;;;18.65;;
75894;SDS011;64573;50.328;15.014;2024-03-02T07:50:01;37.80;;;17.60;;
75894;SDS011;64573;50.328;15.014;2024-03-02T07:52:27;39.22;;;17.02;;
75894;SDS011;64573;50.328;15.014;2024-03-02T07:57:22;39.00;;;18.42;;
75894;SDS011;64573;50.328;15.014;2024-03-02T07:59:48;37.97;;;17.83;;
75894;SDS011;64573;50.328;15.014;2024-03-02T08:02:14;36.53;;;16.75;;
75894;SDS011;64573;50.328;15.014;2024-03-02T08:04:40;35.67;;;17.20;;
75894;SDS011;64573;50.328;15.014;2024-03-02T08:07:06;37.28;;;17.30;;
75894;SDS011;64573;50.328;15.014;2024-03-02T08:09:31;36.72;;;18.17;;
75894;SDS011;64573;50.328;15.014;2024-03-02T08:11:56;37.20;;;18.05;;
75894;SDS011;64573;50.328;15.014;2024-03-02T08:14:23;36.78;;;17.98;;
75894;SDS011;64573;50.328;15.014;2024-03-02T08:16:49;35.25;;;18.35;;
75894;SDS011;64573;50.328;15.014;2024-03-02T08:19:14;42.97;;;19.27;;
75894;SDS011;64573;50.328;15.014;2024-03-02T08:21:40;38.03;;;18.55;;
75894;SDS011;64573;50.328;15.014;2024-03-02T08:24:05;38.63;;;18.13;;
75894;SDS011;64573;50.328;15.014;2024-03-02T08:26:31;34.30;;;17.27;;
75894;SDS011;64573;50.328;15.014;2024-03-02T08:28:57;41.60;;;18.42;;
75894;SDS011;64573;50.328;15.014;2024-03-02T08:31:23;36.35;;;17.40;;
75894;SDS011;64573;50.328;15.014;2024-03-02T08:33:49;34.92;;;17.23;;
75894;SDS011;64573;50.328;15.014;2024-03-02T08:36:14;34.35;;;17.35;;
75894;SDS011;64573;50.328;15.014;2024-03-02T08:38:40;40.30;;;17.25;;
75894;SDS011;64573;50.328;15.014;2024-03-02T08:41:06;35.50;;;17.25;;
75894;SDS011;64573;50.328;15.014;2024-03-02T08:43:32;34.53;;;17.23;;
75894;SDS011;64573;50.328;15.014;2024-03-02T08:45:57;33.67;;;16.05;;
75894;SDS011;64573;50.328;15.014;2024-03-02T08:48:23;30.70;;;16.50;;
75894;SDS011;64573;50.328;15.014;2024-03-02T08:50:48;32.38;;;15.15;;
75894;SDS011;64573;50.328;15.014;2024-03-02T08:53:14;33.97;;;16.13;;
75894;SDS011;64573;50.328;15.014;2024-03-02T08:55:43;33.30;;;16.50;;
75894;SDS011;64573;50.328;15.014;2024-03-02T08:58:10;35.97;;;16.40;;
75894;SDS011;64573;50.328;15.014;2024-03-02T09:00:35;32.13;;;15.80;;
75894;SDS011;64573;50.328;15.014;2024-03-02T09:03:01;33.30;;;16.38;;
75894;SDS011;64573;50.328;15.014;2024-03-02T09:05:26;33.10;;;16.23;;
75894;SDS011;64573;50.328;15.014;2024-03-02T09:07:51;35.17;;;17.38;;
75894;SDS011;64573;50.328;15.014;2024-03-02T09:10:17;37.63;;;17.25;;
75894;SDS011;64573;50.328;15.014;2024-03-02T09:12:42;32.38;;;15.80;;
75894;SDS011;64573;50.328;15.014;2024-03-02T09:15:08;28.23;;;14.85;;
75894;SDS011;64573;50.328;15.014;2024-03-02T09:17:33;28.65;;;14.57;;
75894;SDS011;64573;50.328;15.014;2024-03-02T09:19:59;31.67;;;15.25;;
75894;SDS011;64573;50.328;15.014;2024-03-02T09:22:24;30.75;;;14.75;;
75894;SDS011;64573;50.328;15.014;2024-03-02T09:24:50;31.52;;;15.00;;
75894;SDS011;64573;50.328;15.014;2024-03-02T09:27:15;32.22;;;15.77;;
75894;SDS011;64573;50.328;15.014;2024-03-02T09:29:40;29.40;;;14.80;;
75894;SDS011;64573;50.328;15.014;2024-03-02T09:32:06;30.33;;;14.95;;
75894;SDS011;64573;50.328;15.014;2024-03-02T09:34:33;28.35;;;12.98;;
75894;SDS011;64573;50.328;15.014;2024-03-02T09:36:59;27.38;;;14.65;;
75894;SDS011;64573;50.328;15.014;2024-03-02T09:39:24;28.25;;;13.82;;
75894;SDS011;64573;50.328;15.014;2024-03-02T09:41:52;24.27;;;12.45;;
75894;SDS011;64573;50.328;15.014;2024-03-02T09:44:18;26.55;;;12.52;;
75894;SDS011;64573;50.328;15.014;2024-03-02T09:46:48;25.33;;;12.88;;
75894;SDS011;64573;50.328;15.014;2024-03-02T09:49:14;27.15;;;12.93;;
75894;SDS011;64573;50.328;15.014;2024-03-02T09:51:39;24.95;;;12.95;;
75894;SDS011;64573;50.328;15.014;2024-03-02T09:54:06;25.70;;;13.75;;
75894;SDS011;64573;50.328;15.014;2024-03-02T09:56:32;23.75;;;12.85;;
75894;SDS011;64573;50.328;15.014;2024-03-02T09:58:58;27.40;;;13.45;;
75894;SDS011;64573;50.328;15.014;2024-03-02T10:01:24;23.17;;;12.02;;
75894;SDS011;64573;50.328;15.014;2024-03-02T10:03:49;25.83;;;13.45;;
75894;SDS011;64573;50.328;15.014;2024-03-02T10:06:18;22.70;;;12.07;;
75894;SDS011;64573;50.328;15.014;2024-03-02T10:08:44;25.02;;;13.23;;
75894;SDS011;64573;50.328;15.014;2024-03-02T10:11:09;26.88;;;13.50;;
75894;SDS011;64573;50.328;15.014;2024-03-02T10:13:35;27.40;;;13.60;;
75894;SDS011;64573;50.328;15.014;2024-03-02T10:16:10;27.00;;;13.13;;
75894;SDS011;64573;50.328;15.014;2024-03-02T10:18:37;26.10;;;13.68;;
75894;SDS011;64573;50.328;15.014;2024-03-02T10:21:35;32.50;;;14.98;;
75894;SDS011;64573;50.328;15.014;2024-03-02T10:23:53;32.88;;;15.25;;
75894;SDS011;64573;50.328;15.014;2024-03-02T10:26:32;25.70;;;12.93;;
75894;SDS011;64573;50.328;15.014;2024-03-02T10:28:57;26.05;;;13.23;;
75894;SDS011;64573;50.328;15.014;2024-03-02T10:31:24;26.38;;;12.57;;
75894;SDS011;64573;50.328;15.014;2024-03-02T10:33:53;24.60;;;12.98;;
75894;SDS011;64573;50.328;15.014;2024-03-02T10:36:19;28.20;;;13.65;;
75894;SDS011;64573;50.328;15.014;2024-03-02T10:38:45;29.23;;;13.18;;
75894;SDS011;64573;50.328;15.014;2024-03-02T10:41:16;30.90;;;15.63;;
75894;SDS011;64573;50.328;15.014;2024-03-02T10:43:42;29.05;;;14.38;;
75894;SDS011;64573;50.328;15.014;2024-03-02T10:46:08;27.30;;;14.13;;
75894;SDS011;64573;50.328;15.014;2024-03-02T10:48:35;29.83;;;14.15;;
75894;SDS011;64573;50.328;15.014;2024-03-02T10:51:04;27.35;;;13.35;;
75894;SDS011;64573;50.328;15.014;2024-03-02T10:53:29;31.25;;;14.57;;
75894;SDS011;64573;50.328;15.014;2024-03-02T10:55:57;25.48;;;13.55;;
75894;SDS011;64573;50.328;15.014;2024-03-02T10:58:28;26.63;;;13.65;;
75894;SDS011;64573;50.328;15.014;2024-03-02T11:00:57;27.25;;;14.40;;
75894;SDS011;64573;50.328;15.014;2024-03-02T11:03:27;26.92;;;13.23;;
75894;SDS011;64573;50.328;15.014;2024-03-02T11:05:58;28.85;;;14.00;;
75894;SDS011;64573;50.328;15.014;2024-03-02T11:08:25;28.23;;;14.05;;
75894;SDS011;64573;50.328;15.014;2024-03-02T11:10:59;25.35;;;14.27;;
75894;SDS011;64573;50.328;15.014;2024-03-02T11:13:31;26.27;;;13.85;;
75894;SDS011;64573;50.328;15.014;2024-03-02T11:16:05;29.33;;;14.65;;
75894;SDS011;64573;50.328;15.014;2024-03-02T11:18:41;24.90;;;13.48;;
75894;SDS011;64573;50.328;15.014;2024-03-02T11:21:07;27.42;;;14.05;;
75894;SDS011;64573;50.328;15.014;2024-03-02T11:23:33;25.35;;;13.52;;
75894;SDS011;64573;50.328;15.014;2024-03-02T11:26:18;24.95;;;13.07;;
75894;SDS011;64573;50.328;15.014;2024-03-02T11:28:47;26.40;;;14.02;;
75894;SDS011;64573;50.328;15.014;2024-03-02T11:31:13;25.33;;;13.82;;
75894;SDS011;64573;50.328;15.014;2024-03-02T11:33:38;30.02;;;15.27;;
75894;SDS011;64573;50.328;15.014;2024-03-02T11:36:05;30.13;;;15.15;;
75894;SDS011;64573;50.328;15.014;2024-03-02T11:38:32;25.15;;;13.18;;
75894;SDS011;64573;50.328;15.014;2024-03-02T11:41:16;28.48;;;13.57;;
75894;SDS011;64573;50.328;15.014;2024-03-02T11:43:43;26.20;;;12.82;;
75894;SDS011;64573;50.328;15.014;2024-03-02T11:46:09;25.10;;;13.43;;
75894;SDS011;64573;50.328;15.014;2024-03-02T11:48:36;22.52;;;13.38;;
75894;SDS011;64573;50.328;15.014;2024-03-02T11:51:04;23.48;;;13.15;;
75894;SDS011;64573;50.328;15.014;2024-03-02T11:53:30;23.83;;;12.65;;
75894;SDS011;64573;50.328;15.014;2024-03-02T11:55:57;25.90;;;14.10;;
75894;SDS011;64573;50.328;15.014;2024-03-02T11:58:24;21.50;;;12.45;;
75894;SDS011;64573;50.328;15.014;2024-03-02T12:00:51;24.98;;;13.85;;
75894;SDS011;64573;50.328;15.014;2024-03-02T12:03:21;26.80;;;14.90;;
75894;SDS011;64573;50.328;15.014;2024-03-02T12:05:50;24.27;;;13.52;;
75894;SDS011;64573;50.328;15.014;2024-03-02T12:08:17;24.48;;;14.20;;
75894;SDS011;64573;50.328;15.014;2024-03-02T12:10:43;23.85;;;13.57;;
75894;SDS011;64573;50.328;15.014;2024-03-02T12:13:09;23.38;;;13.80;;
75894;SDS011;64573;50.328;15.014;2024-03-02T12:15:37;27.73;;;14.25;;
75894;SDS011;64573;50.328;15.014;2024-03-02T12:18:03;83.68;;;42.22;;
75894;SDS011;64573;50.328;15.014;2024-03-02T12:20:30;41.47;;;21.85;;
75894;SDS011;64573;50.328;15.014;2024-03-02T12:23:00;26.13;;;14.55;;
75894;SDS011;64573;50.328;15.014;2024-03-02T12:25:27;27.60;;;14.70;;
75894;SDS011;64573;50.328;15.014;2024-03-02T12:27:53;26.83;;;14.10;;
75894;SDS011;64573;50.328;15.014;2024-03-02T12:30:20;24.67;;;13.38;;
75894;SDS011;64573;50.328;15.014;2024-03-02T12:32:46;24.85;;;12.98;;
75894;SDS011;64573;50.328;15.014;2024-03-02T12:35:13;25.52;;;13.95;;
75894;SDS011;64573;50.328;15.014;2024-03-02T12:37:45;20.45;;;11.23;;
75894;SDS011;64573;50.328;15.014;2024-03-02T12:40:12;29.77;;;13.75;;
75894;SDS011;64573;50.328;15.014;2024-03-02T12:42:41;28.50;;;14.65;;
75894;SDS011;64573;50.328;15.014;2024-03-02T12:45:07;25.38;;;12.25;;
75894;SDS011;64573;50.328;15.014;2024-03-02T12:47:33;26.08;;;13.05;;
75894;SDS011;64573;50.328;15.014;2024-03-02T12:49:59;24.83;;;12.85;;
75894;SDS011;64573;50.328;15.014;2024-03-02T12:52:25;26.73;;;14.35;;
75894;SDS011;64573;50.328;15.014;2024-03-02T12:54:51;26.60;;;13.77;;
75894;SDS011;64573;50.328;15.014;2024-03-02T12:57:20;26.40;;;13.63;;
75894;SDS011;64573;50.328;15.014;2024-03-02T12:59:45;27.67;;;13.88;;
75894;SDS011;64573;50.328;15.014;2024-03-02T13:02:17;30.45;;;14.52;;
75894;SDS011;64573;50.328;15.014;2024-03-02T13:04:43;28.73;;;14.48;;
75894;SDS011;64573;50.328;15.014;2024-03-02T13:07:09;26.45;;;14.70;;
75894;SDS011;64573;50.328;15.014;2024-03-02T13:09:35;27.05;;;14.45;;
75894;SDS011;64573;50.328;15.014;2024-03-02T13:12:01;31.15;;;16.38;;
75894;SDS011;64573;50.328;15.014;2024-03-02T13:14:29;28.45;;;15.38;;
75894;SDS011;64573;50.328;15.014;2024-03-02T13:16:57;30.63;;;15.82;;
75894;SDS011;64573;50.328;15.014;2024-03-02T13:19:23;27.65;;;15.32;;
75894;SDS011;64573;50.328;15.014;2024-03-02T13:21:48;29.85;;;15.70;;
75894;SDS011;64573;50.328;15.014;2024-03-02T13:24:15;27.80;;;14.63;;
75894;SDS011;64573;50.328;15.014;2024-03-02T13:26:40;33.45;;;15.57;;
75894;SDS011;64573;50.328;15.014;2024-03-02T13:29:06;29.88;;;15.68;;
75894;SDS011;64573;50.328;15.014;2024-03-02T13:31:32;34.53;;;16.77;;
75894;SDS011;64573;50.328;15.014;2024-03-02T13:33:58;33.85;;;16.85;;
75894;SDS011;64573;50.328;15.014;2024-03-02T13:36:23;30.80;;;15.13;;
75894;SDS011;64573;50.328;15.014;2024-03-02T13:38:49;34.40;;;17.13;;
75894;SDS011;64573;50.328;15.014;2024-03-02T13:41:14;31.42;;;15.82;;
75894;SDS011;64573;50.328;15.014;2024-03-02T13:43:40;29.85;;;15.85;;
75894;SDS011;64573;50.328;15.014;2024-03-02T13:46:05;31.83;;;16.05;;
75894;SDS011;64573;50.328;15.014;2024-03-02T13:48:31;28.95;;;15.77;;
75894;SDS011;64573;50.328;15.014;2024-03-02T13:50:57;31.35;;;16.05;;
75894;SDS011;64573;50.328;15.014;2024-03-02T13:53:22;34.80;;;17.45;;
75894;SDS011;64573;50.328;15.014;2024-03-02T13:55:48;32.13;;;16.40;;
75894;SDS011;64573;50.328;15.014;2024-03-02T13:58:13;34.03;;;14.55;;
75894;SDS011;64573;50.328;15.014;2024-03-02T14:00:39;34.33;;;15.75;;
75894;SDS011;64573;50.328;15.014;2024-03-02T14:03:08;32.05;;;15.77;;
75894;SDS011;64573;50.328;15.014;2024-03-02T14:05:33;39.90;;;16.55;;
75894;SDS011;64573;50.328;15.014;2024-03-02T14:07:59;36.75;;;17.85;;
75894;SDS011;64573;50.328;15.014;2024-03-02T14:10:25;33.80;;;16.45;;
75894;SDS011;64573;50.328;15.014;2024-03-02T14:12:52;33.70;;;17.52;;
75894;SDS011;64573;50.328;15.014;2024-03-02T14:15:17;31.88;;;16.83;;
75894;SDS011;64573;50.328;15.014;2024-03-02T14:17:43;32.88;;;15.30;;